Time,TemperatureF,DewpointF,PressureIn,WindDirection,WindDirectionDegrees,WindSpeedMPH,WindSpeedGustMPH,Humidity,HourlyPrecipIn,Conditions,Clouds,dailyrainin,SolarRadiationWatts/m^2,SoftwareType,DateUTC
2013-07-23 00:01:00,67.0,66.0,-100.00,WSW,241,2.0,2.0,98,0.03,,,0.18,0.000000,,2013-07-23 04:01:00,
2013-07-23 00:32:00,68.0,67.0,-100.00,SSW,203,3.0,5.0,97,0.01,,,0.19,0.000000,,2013-07-23 04:32:00,
2013-07-23 00:43:00,68.0,67.0,-100.00,SSW,203,3.0,5.0,97,0.01,,,0.19,0.000000,,2013-07-23 04:43:00,
2013-07-23 00:53:00,68.0,67.0,-100.00,SSW,203,3.0,5.0,97,0.01,,,0.19,0.000000,,2013-07-23 04:53:00,
2013-07-23 01:02:00,68.0,67.0,-100.00,SSW,203,3.0,5.0,97,0.01,,,0.19,0.000000,,2013-07-23 05:02:00,
2013-07-23 01:33:00,67.0,66.0,-100.00,SW,227,3.0,6.0,97,0.00,,,0.19,0.000000,,2013-07-23 05:33:00,
2013-07-23 01:44:00,67.0,66.0,-100.00,SW,227,3.0,6.0,97,0.00,,,0.19,0.000000,,2013-07-23 05:44:00,
2013-07-23 01:52:00,67.0,66.0,-100.00,SW,227,3.0,6.0,97,0.00,,,0.19,0.000000,,2013-07-23 05:52:00,
2013-07-23 02:01:00,67.0,66.0,-100.00,SW,227,3.0,6.0,97,0.00,,,0.19,0.000000,,2013-07-23 06:01:00,
2013-07-23 02:33:00,66.0,65.0,-100.00,SW,231,3.0,6.0,98,0.00,,,0.19,0.000000,,2013-07-23 06:33:00,
2013-07-23 02:42:00,66.0,65.0,-100.00,SW,231,3.0,6.0,98,0.00,,,0.19,0.000000,,2013-07-23 06:42:00,
2013-07-23 02:52:00,66.0,65.0,-100.00,SW,231,3.0,6.0,98,0.00,,,0.19,0.000000,,2013-07-23 06:52:00,
2013-07-23 03:02:00,66.0,65.0,-100.00,SW,231,3.0,6.0,98,0.00,,,0.19,0.000000,,2013-07-23 07:02:00,
2013-07-23 03:33:00,65.0,64.0,-100.00,West,273,3.0,7.0,98,0.00,,,0.19,0.000000,,2013-07-23 07:33:00,
2013-07-23 03:42:00,65.0,64.0,-100.00,West,273,3.0,7.0,98,0.00,,,0.19,0.000000,,2013-07-23 07:42:00,
2013-07-23 03:52:00,65.0,64.0,-100.00,West,273,3.0,7.0,98,0.00,,,0.19,0.000000,,2013-07-23 07:52:00,
2013-07-23 04:01:00,65.0,64.0,-100.00,West,273,3.0,7.0,98,0.00,,,0.19,0.000000,,2013-07-23 08:01:00,
2013-07-23 04:43:00,65.0,64.0,-100.00,West,273,3.0,6.0,98,0.00,,,0.19,0.000000,,2013-07-23 08:43:00,
2013-07-23 04:52:00,65.0,64.0,-100.00,West,273,3.0,6.0,98,0.00,,,0.19,0.000000,,2013-07-23 08:52:00,
2013-07-23 05:01:00,65.0,64.0,-100.00,West,273,3.0,6.0,98,0.00,,,0.19,0.000000,,2013-07-23 09:01:00,
2013-07-23 05:43:00,64.0,64.0,-100.00,NW,304,3.0,4.0,99,0.00,,,0.19,0.000000,,2013-07-23 09:43:00,
2013-07-23 05:53:00,64.0,64.0,-100.00,NW,304,3.0,4.0,99,0.00,,,0.19,0.000000,,2013-07-23 09:53:00,
2013-07-23 06:02:00,64.0,64.0,-100.00,NW,304,3.0,4.0,99,0.00,,,0.19,0.000000,,2013-07-23 10:02:00,
2013-07-23 06:32:00,63.0,63.0,-100.00,West,276,1.0,0.0,99,0.00,,,0.19,0.000000,,2013-07-23 10:32:00,
2013-07-23 06:44:00,63.0,63.0,-100.00,West,276,1.0,0.0,99,0.00,,,0.19,0.000000,,2013-07-23 10:44:00,
2013-07-23 06:52:00,63.0,63.0,-100.00,West,276,1.0,0.0,99,0.00,,,0.19,0.000000,,2013-07-23 10:52:00,
2013-07-23 07:02:00,63.0,63.0,-100.00,West,276,1.0,0.0,99,0.00,,,0.19,0.000000,,2013-07-23 11:02:00,
2013-07-23 07:43:00,63.0,63.0,-100.00,WNW,303,2.0,4.0,99,0.00,,,0.19,11.000000,,2013-07-23 11:43:00,
2013-07-23 07:52:00,63.0,63.0,-100.00,WNW,303,2.0,4.0,99,0.00,,,0.19,11.000000,,2013-07-23 11:52:00,
2013-07-23 08:02:00,63.0,63.0,-100.00,WNW,303,2.0,4.0,99,0.00,,,0.19,11.000000,,2013-07-23 12:02:00,
2013-07-23 08:33:00,64.0,63.0,-100.00,WNW,284,2.0,5.0,98,0.00,,,0.19,69.000000,,2013-07-23 12:33:00,
2013-07-23 08:43:00,64.0,63.0,-100.00,WNW,284,2.0,5.0,98,0.00,,,0.19,69.000000,,2013-07-23 12:43:00,
2013-07-23 09:02:00,64.0,63.0,-100.00,WNW,284,2.0,5.0,98,0.00,,,0.19,69.000000,,2013-07-23 13:02:00,
2013-07-23 09:43:00,67.0,65.0,-100.00,WNW,297,4.0,7.0,93,0.00,,,0.19,164.000000,,2013-07-23 13:43:00,
2013-07-23 09:52:00,67.0,65.0,-100.00,WNW,297,4.0,7.0,93,0.00,,,0.19,164.000000,,2013-07-23 13:52:00,
2013-07-23 10:02:00,67.0,65.0,-100.00,WNW,297,4.0,7.0,93,0.00,,,0.19,164.000000,,2013-07-23 14:02:00,
2013-07-23 10:44:00,69.0,65.0,-100.00,WNW,290,3.0,6.0,87,0.00,,,0.19,267.000000,,2013-07-23 14:44:00,
2013-07-23 10:54:00,69.0,65.0,-100.00,WNW,290,3.0,6.0,87,0.00,,,0.19,267.000000,,2013-07-23 14:54:00,
2013-07-23 11:03:00,69.0,65.0,-100.00,WNW,290,3.0,6.0,87,0.00,,,0.19,267.000000,,2013-07-23 15:03:00,
2013-07-23 11:32:00,75.0,65.0,-100.00,West,271,3.0,5.0,72,0.00,,,0.19,689.000000,,2013-07-23 15:32:00,
2013-07-23 11:43:00,75.0,65.0,-100.00,West,271,3.0,5.0,72,0.00,,,0.19,689.000000,,2013-07-23 15:43:00,
2013-07-23 11:52:00,75.0,65.0,-100.00,West,271,3.0,5.0,72,0.00,,,0.19,689.000000,,2013-07-23 15:52:00,
2013-07-23 12:01:00,75.0,65.0,-100.00,West,271,3.0,5.0,72,0.00,,,0.19,689.000000,,2013-07-23 16:01:00,
2013-07-23 12:43:00,78.0,65.0,-100.00,West,268,4.0,7.0,64,0.00,,,0.19,906.000000,,2013-07-23 16:43:00,
2013-07-23 12:52:00,78.0,65.0,-100.00,West,268,4.0,7.0,64,0.00,,,0.19,906.000000,,2013-07-23 16:52:00,
2013-07-23 13:02:00,78.0,65.0,-100.00,West,268,4.0,7.0,64,0.00,,,0.19,906.000000,,2013-07-23 17:02:00,
2013-07-23 13:42:00,78.0,64.0,-100.00,West,281,4.0,7.0,63,0.01,,,0.20,841.000000,,2013-07-23 17:42:00,
2013-07-23 13:57:00,78.0,64.0,-100.00,West,281,4.0,7.0,63,0.01,,,0.20,841.000000,,2013-07-23 17:57:00,
2013-07-23 14:04:00,78.0,64.0,-100.00,West,281,4.0,7.0,63,0.01,,,0.20,841.000000,,2013-07-23 18:04:00,
2013-07-23 14:36:00,80.0,63.0,-100.00,West,274,5.0,7.0,57,0.00,,,0.20,977.000000,,2013-07-23 18:36:00,
2013-07-23 14:49:00,80.0,63.0,-100.00,West,274,5.0,7.0,57,0.00,,,0.20,977.000000,,2013-07-23 18:49:00,
2013-07-23 14:58:00,80.0,63.0,-100.00,West,274,5.0,7.0,57,0.00,,,0.20,977.000000,,2013-07-23 18:58:00,
2013-07-23 15:07:00,81.0,65.0,-100.00,WSW,249,4.0,6.0,59,0.00,,,0.20,925.000000,,2013-07-23 19:07:00,
2013-07-23 15:49:00,81.0,65.0,-100.00,WSW,249,4.0,6.0,59,0.00,,,0.20,925.000000,,2013-07-23 19:49:00,
2013-07-23 16:35:00,80.0,63.0,-100.00,SW,234,5.0,9.0,57,0.00,,,0.20,790.000000,,2013-07-23 20:35:00,
2013-07-23 16:48:00,80.0,63.0,-100.00,SW,234,5.0,9.0,57,0.00,,,0.20,790.000000,,2013-07-23 20:48:00,
2013-07-23 16:59:00,80.0,63.0,-100.00,SW,234,5.0,9.0,57,0.00,,,0.20,790.000000,,2013-07-23 20:59:00,
2013-07-23 17:48:00,77.0,63.0,-100.00,WSW,256,5.0,9.0,62,0.00,,,0.19,400.000000,,2013-07-23 21:48:00,
2013-07-23 17:57:00,77.0,63.0,-100.00,WSW,256,5.0,9.0,62,0.00,,,0.19,400.000000,,2013-07-23 21:57:00,
2013-07-23 18:06:00,77.0,63.0,-100.00,WSW,256,5.0,9.0,62,0.00,,,0.19,400.000000,,2013-07-23 22:06:00,
2013-07-23 19:07:00,66.0,63.0,-100.00,SW,232,1.0,4.0,89,0.02,,,0.23,140.000000,,2013-07-23 23:07:00,
2013-07-23 19:47:00,66.0,63.0,-100.00,SW,232,1.0,4.0,89,0.02,,,0.23,140.000000,,2013-07-23 23:47:00,
2013-07-23 20:00:00,66.0,63.0,-100.00,SW,232,1.0,4.0,89,0.02,,,0.23,140.000000,,2013-07-24 00:00:00,
2013-07-23 20:34:00,65.0,62.0,-100.00,North,353,0.0,0.0,91,0.00,,,0.17,164.000000,,2013-07-24 00:34:00,
2013-07-23 20:50:00,65.0,62.0,-100.00,North,353,0.0,0.0,91,0.00,,,0.17,164.000000,,2013-07-24 00:50:00,
2013-07-23 20:58:00,65.0,62.0,-100.00,North,353,0.0,0.0,91,0.00,,,0.17,164.000000,,2013-07-24 00:58:00,
2013-07-23 21:04:00,65.0,62.0,-100.00,North,353,0.0,0.0,91,0.00,,,0.17,164.000000,,2013-07-24 01:04:00,
2013-07-23 21:48:00,61.0,60.0,-100.00,ENE,67,0.0,0.0,98,0.00,,,0.16,6.000000,,2013-07-24 01:48:00,
2013-07-23 22:05:00,61.0,60.0,-100.00,ENE,67,0.0,0.0,98,0.00,,,0.16,6.000000,,2013-07-24 02:05:00,
2013-07-23 22:48:00,61.0,60.0,-100.00,SSE,152,0.0,0.0,98,0.00,,,0.16,0.000000,,2013-07-24 02:48:00,
2013-07-23 22:57:00,61.0,60.0,-100.00,SSE,152,0.0,0.0,98,0.00,,,0.16,0.000000,,2013-07-24 02:57:00,
2013-07-23 23:06:00,61.0,60.0,-100.00,SSE,152,0.0,0.0,98,0.00,,,0.16,0.000000,,2013-07-24 03:06:00,
2013-07-23 23:46:00,61.0,61.0,-100.00,North,2,0.0,0.0,99,0.00,,,0.13,0.000000,,2013-07-24 03:46:00,
2013-07-23 23:58:00,61.0,61.0,-100.00,North,2,0.0,0.0,99,0.00,,,0.13,0.000000,,2013-07-24 03:58:00,